createdAt,value
2023-04-16T00:01:35.200Z,91074.22
2023-04-16T00:04:02.016Z,91075.50
2023-04-16T00:06:28.852Z,91076.34
2023-04-16T00:08:55.481Z,91080.47
2023-04-16T00:11:22.308Z,91076.00
2023-04-16T00:13:49.183Z,91074.41
2023-04-16T00:16:16.150Z,91075.50
2023-04-16T00:18:42.798Z,91072.50
2023-04-16T00:21:09.466Z,91080.09
2023-04-16T00:23:36.112Z,91079.72
2023-04-16T00:26:02.772Z,91075.84
2023-04-16T00:28:29.478Z,91075.56
2023-04-16T00:30:56.138Z,91077.75
2023-04-16T00:33:23.439Z,91078.13
2023-04-16T00:35:50.736Z,91078.66
2023-04-16T00:38:17.398Z,91069.59
2023-04-16T00:40:44.021Z,91067.06
2023-04-16T00:43:10.856Z,91062.78
2023-04-16T00:45:37.498Z,91068.88
2023-04-16T00:48:04.552Z,91055.69
2023-04-16T00:50:31.401Z,91066.50
2023-04-16T00:52:58.266Z,91056.88
2023-04-16T00:55:24.948Z,91064.88
2023-04-16T00:57:51.555Z,91067.72
2023-04-16T01:00:18.274Z,91057.91
2023-04-16T01:02:45.007Z,91051.56
2023-04-16T01:05:11.766Z,91051.84
2023-04-16T01:07:38.493Z,91054.13
2023-04-16T01:10:05.468Z,91058.25
2023-04-16T01:12:32.593Z,91054.41
2023-04-16T01:14:59.268Z,91051.19
2023-04-16T01:17:25.957Z,91054.13
2023-04-16T01:19:52.661Z,91057.59
2023-04-16T01:22:19.399Z,91047.22
2023-04-16T01:24:46.209Z,91048.41
2023-04-16T01:27:12.884Z,91052.06
2023-04-16T01:29:39.621Z,91048.34
2023-04-16T01:32:06.400Z,91055.19
2023-04-16T01:34:33.072Z,91043.56
2023-04-16T01:36:59.704Z,91049.94
2023-04-16T01:39:26.390Z,91050.06
2023-04-16T01:41:53.144Z,91047.91
2023-04-16T01:44:19.998Z,91048.16
2023-04-16T01:46:46.675Z,91048.50
2023-04-16T01:49:13.773Z,91047.72
2023-04-16T01:51:40.566Z,91047.28
2023-04-16T01:54:07.239Z,91045.59
2023-04-16T01:56:33.877Z,91035.75
2023-04-16T01:59:00.534Z,91039.94
2023-04-16T02:01:27.294Z,91049.34
2023-04-16T02:03:54.091Z,91041.22
2023-04-16T02:06:20.917Z,91047.41
2023-04-16T02:08:47.753Z,91039.34
2023-04-16T02:11:14.387Z,91038.53
2023-04-16T02:13:41.040Z,91037.22
2023-04-16T02:16:07.743Z,91037.59
2023-04-16T02:18:34.342Z,91031.56
2023-04-16T02:21:01.148Z,91024.75
2023-04-16T02:23:27.800Z,91030.03
2023-04-16T02:25:54.668Z,91026.91
2023-04-16T02:28:21.346Z,91032.47
2023-04-16T02:30:48.002Z,91024.63
2023-04-16T02:33:14.711Z,91026.22
2023-04-16T02:35:41.425Z,91030.41
2023-04-16T02:38:08.486Z,91023.25
2023-04-16T02:40:35.125Z,91030.66
2023-04-16T02:43:02.051Z,91026.38
2023-04-16T02:45:28.814Z,91019.78
2023-04-16T02:47:55.670Z,91031.13
2023-04-16T02:50:22.356Z,91026.19
2023-04-16T02:52:49.023Z,91035.06
2023-04-16T02:55:16.155Z,91022.03
2023-04-16T02:57:42.897Z,91030.06
2023-04-16T03:00:10.162Z,91017.56
2023-04-16T03:02:36.917Z,91020.38
2023-04-16T03:05:04.293Z,91015.78
2023-04-16T03:07:30.940Z,91017.63
2023-04-16T03:09:57.588Z,91015.50
2023-04-16T03:12:24.401Z,91016.47
2023-04-16T03:14:52.533Z,91022.75
2023-04-16T03:17:19.275Z,91027.97
2023-04-16T03:19:46.207Z,91022.69
2023-04-16T03:22:12.993Z,91025.19
2023-04-16T03:24:39.629Z,91039.91
2023-04-16T03:27:06.276Z,91031.09
2023-04-16T03:29:32.878Z,91028.13
2023-04-16T03:31:59.631Z,91022.38
2023-04-16T03:34:26.698Z,91026.16
2023-04-16T03:36:53.324Z,91024.47
2023-04-16T03:39:19.929Z,91026.31
2023-04-16T03:41:46.936Z,91034.19
2023-04-16T03:44:13.669Z,91032.09
2023-04-16T03:46:40.582Z,91028.31
2023-04-16T03:49:07.912Z,91028.66
2023-04-16T03:51:34.919Z,91036.41
2023-04-16T03:54:01.542Z,91036.91
2023-04-16T03:56:28.218Z,91043.78
2023-04-16T03:58:54.854Z,91045.59
2023-04-16T04:01:21.549Z,91048.97
2023-04-16T04:03:48.490Z,91046.97
2023-04-16T04:06:15.323Z,91056.78
2023-04-16T04:08:41.938Z,91043.22
2023-04-16T04:11:08.654Z,91052.94
2023-04-16T04:13:35.357Z,91050.34
2023-04-16T04:16:02.097Z,91051.19
2023-04-16T04:18:28.845Z,91049.84
2023-04-16T04:20:55.567Z,91054.63
2023-04-16T04:23:22.157Z,91050.44
2023-04-16T04:25:48.833Z,91053.69
2023-04-16T04:28:15.618Z,91048.97
2023-04-16T04:30:42.296Z,91058.25
2023-04-16T04:33:09.019Z,91061.25
2023-04-16T04:35:35.740Z,91052.97
2023-04-16T04:38:03.092Z,91050.75
2023-04-16T04:40:29.808Z,91049.41
2023-04-16T04:42:56.810Z,91057.13
2023-04-16T04:45:25.616Z,91049.13
2023-04-16T04:47:55.360Z,91060.44
2023-04-16T04:50:22.155Z,91061.69
2023-04-16T04:52:48.752Z,91067.78
2023-04-16T04:55:16.179Z,91065.16
2023-04-16T04:57:42.909Z,91061.94
2023-04-16T05:00:09.947Z,91063.47
2023-04-16T05:02:36.650Z,91058.75
2023-04-16T05:05:04.292Z,91060.59
2023-04-16T05:07:31.634Z,91064.63
2023-04-16T05:09:58.314Z,91057.47
2023-04-16T05:12:25.060Z,91061.25
2023-04-16T05:14:51.782Z,91059.44
2023-04-16T05:17:18.480Z,91050.53
2023-04-16T05:19:45.332Z,91059.06
2023-04-16T05:22:12.627Z,91049.69
2023-04-16T05:24:39.229Z,91045.06
2023-04-16T05:27:06.609Z,91059.25
2023-04-16T05:29:33.274Z,91052.59
2023-04-16T05:31:59.919Z,91062.38
2023-04-16T05:34:26.593Z,91053.25
2023-04-16T05:36:53.224Z,91056.38
2023-04-16T05:39:20.317Z,91050.78
2023-04-16T05:41:47.082Z,91054.88
2023-04-16T05:44:15.281Z,91051.00
2023-04-16T05:46:41.914Z,91045.13
2023-04-16T05:49:08.815Z,91049.84
2023-04-16T05:51:35.925Z,91057.75
2023-04-16T05:54:02.605Z,91054.28
2023-04-16T05:56:29.258Z,91054.97
2023-04-16T05:58:55.842Z,91055.44
2023-04-16T06:01:22.611Z,91057.44
2023-04-16T06:03:49.449Z,91050.41
2023-04-16T06:06:16.233Z,91044.25
2023-04-16T06:08:42.841Z,91036.59
2023-04-16T06:11:09.461Z,91039.59
2023-04-16T06:13:37.045Z,91043.06
2023-04-16T06:16:03.855Z,91037.94
2023-04-16T06:18:30.713Z,91043.91
2023-04-16T06:20:58.950Z,91042.84
2023-04-16T06:23:25.741Z,91038.03
2023-04-16T06:25:52.460Z,91043.63
2023-04-16T06:28:19.101Z,91036.69
2023-04-16T06:30:46.771Z,91032.59
2023-04-16T06:33:13.402Z,91037.31
2023-04-16T06:35:40.043Z,91030.84
2023-04-16T06:38:06.676Z,91028.00
2023-04-16T06:40:33.315Z,91038.50
2023-04-16T06:42:59.879Z,91034.16
2023-04-16T06:45:26.690Z,91040.59
2023-04-16T06:47:53.390Z,91034.91
2023-04-16T06:50:20.175Z,91031.25
2023-04-16T06:52:46.772Z,91028.22
2023-04-16T06:55:13.399Z,91027.44
2023-04-16T06:57:40.911Z,91029.63
2023-04-16T07:00:08.271Z,91024.25
2023-04-16T07:02:35.415Z,91031.34
2023-04-16T07:05:02.259Z,91031.38
2023-04-16T07:07:29.004Z,91027.97
2023-04-16T07:09:55.718Z,91037.06
2023-04-16T07:12:22.914Z,91034.41
2023-04-16T07:14:49.706Z,91028.47
2023-04-16T07:17:16.408Z,91026.50
2023-04-16T07:19:43.123Z,91019.84
2023-04-16T07:22:09.857Z,91031.50
2023-04-16T07:24:36.617Z,91036.28
2023-04-16T07:27:03.314Z,91040.34
2023-04-16T07:29:30.063Z,91038.97
2023-04-16T07:31:57.502Z,91038.75
2023-04-16T07:34:24.196Z,91026.38
2023-04-16T07:36:50.864Z,91022.44
2023-04-16T07:39:17.528Z,91020.06
2023-04-16T07:41:44.247Z,91018.44
2023-04-16T07:44:10.882Z,91015.53
2023-04-16T07:46:46.445Z,91022.19
2023-04-16T07:49:13.936Z,91013.84
2023-04-16T07:51:40.704Z,91017.75
2023-04-16T07:54:07.490Z,91016.53
2023-04-16T07:56:34.186Z,91017.38
2023-04-16T07:59:08.030Z,91008.56
2023-04-16T08:01:41.535Z,91013.22
2023-04-16T08:04:08.457Z,91010.13
2023-04-16T08:06:35.246Z,91006.28
2023-04-16T08:09:01.911Z,91004.78
2023-04-16T08:11:28.610Z,91003.81
2023-04-16T08:13:55.456Z,91009.25
2023-04-16T08:16:22.263Z,90997.81
2023-04-16T08:18:48.916Z,90998.47
2023-04-16T08:21:15.749Z,90986.63
2023-04-16T08:23:42.468Z,90987.81
2023-04-16T08:26:09.098Z,90983.69
2023-04-16T08:28:35.900Z,90985.78
2023-04-16T08:31:02.572Z,90994.50
2023-04-16T08:33:29.289Z,90989.44
2023-04-16T08:35:55.962Z,90986.81
2023-04-16T08:38:22.635Z,90989.47
2023-04-16T08:40:49.488Z,90991.63
2023-04-16T08:43:16.234Z,90990.75
2023-04-16T08:45:43.246Z,90985.63
2023-04-16T08:48:11.486Z,90981.00
2023-04-16T08:50:38.096Z,90981.84
2023-04-16T08:53:08.433Z,90978.81
2023-04-16T08:55:41.372Z,90968.72
2023-04-16T08:58:24.289Z,90972.06
2023-04-16T09:00:51.137Z,90967.00
2023-04-16T09:03:20.129Z,90965.53
2023-04-16T09:05:47.010Z,90966.25
2023-04-16T09:08:13.694Z,90970.16
2023-04-16T09:10:40.451Z,90972.25
2023-04-16T09:13:09.548Z,90976.44
2023-04-16T09:15:36.288Z,90969.66
2023-04-16T09:18:03.047Z,90964.03
2023-04-16T09:20:29.758Z,90957.97
2023-04-16T09:22:57.125Z,90973.13
2023-04-16T09:25:23.807Z,90963.47
2023-04-16T09:27:51.306Z,90963.09
2023-04-16T09:30:24.590Z,90955.63
2023-04-16T09:32:52.208Z,90956.16
2023-04-16T09:35:19.559Z,90962.41
2023-04-16T09:37:55.895Z,90962.06
2023-04-16T09:40:27.371Z,90955.81
2023-04-16T09:42:57.321Z,90943.19
2023-04-16T09:45:24.512Z,90943.69
2023-04-16T09:47:51.472Z,90937.88
2023-04-16T09:50:19.222Z,90941.09
2023-04-16T09:52:51.784Z,90931.13
2023-04-16T09:55:32.221Z,90943.91
2023-04-16T09:58:00.183Z,90935.19
2023-04-16T10:00:26.832Z,90938.06
2023-04-16T10:03:04.128Z,90932.13
2023-04-16T10:05:31.021Z,90933.31
2023-04-16T10:08:01.278Z,90936.44
2023-04-16T10:10:28.278Z,90933.25
2023-04-16T10:12:55.469Z,90942.72
2023-04-16T10:15:22.344Z,90928.00
2023-04-16T10:17:48.990Z,90932.09
2023-04-16T10:20:17.184Z,90932.84
2023-04-16T10:22:43.943Z,90937.69
2023-04-16T10:25:10.844Z,90933.47
2023-04-16T10:27:37.729Z,90930.59
2023-04-16T10:30:04.844Z,90936.91
2023-04-16T10:32:31.608Z,90937.22
2023-04-16T10:34:58.235Z,90934.06
2023-04-16T10:37:31.515Z,90932.56
2023-04-16T10:39:59.800Z,90925.56
2023-04-16T10:42:27.567Z,90934.09
2023-04-16T10:44:54.130Z,90931.34
2023-04-16T10:47:21.034Z,90936.38
2023-04-16T10:49:48.219Z,90934.66
2023-04-16T10:52:18.646Z,90933.91
2023-04-16T10:54:45.519Z,90929.50
2023-04-16T10:57:16.563Z,90926.28
2023-04-16T10:59:43.866Z,90929.44
2023-04-16T11:02:15.138Z,90920.97
2023-04-16T11:04:46.009Z,90924.81
2023-04-16T11:07:16.428Z,90909.16
2023-04-16T11:10:05.782Z,90910.50
2023-04-16T11:12:33.862Z,90899.69
2023-04-16T11:15:04.848Z,90902.06
2023-04-16T11:17:47.905Z,90902.63
2023-04-16T11:20:24.284Z,90893.78
2023-04-16T11:22:51.879Z,90905.03
2023-04-16T11:25:25.485Z,90901.75
2023-04-16T11:27:52.617Z,90891.50
2023-04-16T11:30:27.691Z,90897.28
2023-04-16T11:32:54.321Z,90896.66
2023-04-16T11:35:21.152Z,90900.53
2023-04-16T11:37:50.961Z,90889.41
2023-04-16T11:40:17.738Z,90891.34
2023-04-16T11:42:44.547Z,90891.28
2023-04-16T11:45:12.109Z,90895.56
2023-04-16T11:47:45.929Z,90894.41
2023-04-16T11:50:27.252Z,90902.38
2023-04-16T11:52:55.819Z,90900.97
2023-04-16T11:55:22.649Z,90899.75
2023-04-16T11:57:49.615Z,90894.16
2023-04-16T12:00:19.294Z,90894.25
2023-04-16T12:02:52.558Z,90893.78
2023-04-16T12:05:34.014Z,90887.72
2023-04-16T12:08:08.015Z,90889.81
2023-04-16T12:10:38.689Z,90880.38
2023-04-16T12:13:15.682Z,90880.22
2023-04-16T12:15:46.729Z,90882.81
2023-04-16T12:18:14.205Z,90874.91
2023-04-16T12:20:44.017Z,90878.34
2023-04-16T12:23:11.569Z,90872.75
2023-04-16T12:25:38.321Z,90871.59
2023-04-16T12:28:05.313Z,90860.91
2023-04-16T12:30:32.071Z,90854.00
2023-04-16T12:33:17.758Z,90858.50
2023-04-16T12:35:45.050Z,90859.06
2023-04-16T12:38:12.063Z,90858.72
2023-04-16T12:40:38.778Z,90856.47
2023-04-16T12:43:05.590Z,90852.72
2023-04-16T12:45:32.390Z,90852.69
2023-04-16T12:47:59.282Z,90853.47
2023-04-16T12:50:26.085Z,90845.63
2023-04-16T12:52:52.675Z,90850.78
2023-04-16T12:55:19.390Z,90844.09
2023-04-16T12:57:48.806Z,90847.75
2023-04-16T13:00:16.371Z,90851.72
2023-04-16T13:02:43.139Z,90845.94
2023-04-16T13:05:10.194Z,90843.84
2023-04-16T13:07:36.862Z,90843.38
2023-04-16T13:10:03.665Z,90844.84
2023-04-16T13:12:30.350Z,90837.31
2023-04-16T13:14:56.933Z,90836.44
2023-04-16T13:17:23.597Z,90832.00
2023-04-16T13:19:50.458Z,90832.75
2023-04-16T13:22:17.168Z,90826.63
2023-04-16T13:24:43.771Z,90830.47
2023-04-16T13:27:11.384Z,90814.00
2023-04-16T13:29:38.105Z,90800.16
2023-04-16T13:32:05.040Z,90802.19
2023-04-16T13:34:31.801Z,90803.84
2023-04-16T13:36:58.409Z,90801.53
2023-04-16T13:39:25.344Z,90796.28
2023-04-16T13:41:52.037Z,90801.16
2023-04-16T13:44:18.715Z,90805.94
2023-04-16T13:46:47.850Z,90811.00
2023-04-16T13:49:14.873Z,90813.59
2023-04-16T13:51:43.704Z,90815.56
2023-04-16T13:54:10.448Z,90831.00
2023-04-16T13:56:37.161Z,90825.09
2023-04-16T13:59:03.773Z,90833.22
2023-04-16T14:01:30.397Z,90829.47
2023-04-16T14:03:57.116Z,90827.81
2023-04-16T14:06:23.911Z,90821.16
2023-04-16T14:08:50.729Z,90828.69
2023-04-16T14:11:17.390Z,90827.34
2023-04-16T14:13:44.088Z,90823.75
2023-04-16T14:16:10.958Z,90827.84
2023-04-16T14:18:42.287Z,90832.00
2023-04-16T14:21:09.264Z,90838.53
2023-04-16T14:23:36.027Z,90841.28
2023-04-16T14:26:02.837Z,90834.53
2023-04-16T14:28:29.486Z,90835.44
2023-04-16T14:30:56.078Z,90843.78
2023-04-16T14:33:22.786Z,90834.81
2023-04-16T14:35:50.487Z,90828.72
2023-04-16T14:38:17.109Z,90827.53
2023-04-16T14:40:43.699Z,90827.59
2023-04-16T14:43:10.504Z,90830.59
2023-04-16T14:45:38.349Z,90837.91
2023-04-16T14:48:06.309Z,90838.16
2023-04-16T14:50:37.946Z,90846.44
2023-04-16T14:53:07.505Z,90845.16
2023-04-16T14:55:34.117Z,90847.38
2023-04-16T14:58:00.823Z,90847.03
2023-04-16T15:00:27.699Z,90849.97
2023-04-16T15:02:57.896Z,90843.00
2023-04-16T15:05:24.792Z,90846.25
2023-04-16T15:07:51.499Z,90845.53
2023-04-16T15:10:18.302Z,90841.00
2023-04-16T15:12:44.978Z,90847.34
2023-04-16T15:15:11.893Z,90845.72
2023-04-16T15:17:38.650Z,90850.78
2023-04-16T15:20:08.159Z,90854.19
2023-04-16T15:22:34.933Z,90854.97
2023-04-16T15:25:02.784Z,90859.44
2023-04-16T15:27:29.545Z,90849.50
2023-04-16T15:29:56.728Z,90856.63
2023-04-16T15:32:23.654Z,90861.44
2023-04-16T15:34:50.385Z,90868.94
2023-04-16T15:37:17.060Z,90862.69
2023-04-16T15:39:44.522Z,90862.59
2023-04-16T15:42:11.339Z,90866.72
2023-04-16T15:44:38.065Z,90862.97
2023-04-16T15:47:06.364Z,90858.72
2023-04-16T15:49:33.116Z,90860.78
2023-04-16T15:52:00.183Z,90860.88
2023-04-16T15:54:27.179Z,90855.84
2023-04-16T15:56:53.775Z,90863.19
2023-04-16T15:59:20.661Z,90866.63
2023-04-16T16:01:47.340Z,90865.53
2023-04-16T16:04:14.311Z,90875.75
2023-04-16T16:06:41.910Z,90876.84
2023-04-16T16:09:09.084Z,90880.44
2023-04-16T16:11:37.132Z,90872.56
2023-04-16T16:14:03.918Z,90861.84
2023-04-16T16:16:30.905Z,90870.34
2023-04-16T16:18:57.600Z,90868.16
2023-04-16T16:21:24.340Z,90871.06
2023-04-16T16:23:51.177Z,90885.19
2023-04-16T16:26:18.326Z,90877.34
2023-04-16T16:28:44.990Z,90876.91
2023-04-16T16:31:12.525Z,90870.03
2023-04-16T16:33:40.452Z,90873.09
2023-04-16T16:36:10.601Z,90863.81
2023-04-16T16:38:37.698Z,90862.97
2023-04-16T16:41:04.305Z,90865.78
2023-04-16T16:43:31.085Z,90859.66
2023-04-16T16:45:57.735Z,90863.06
2023-04-16T16:48:24.474Z,90863.38
2023-04-16T16:50:51.035Z,90868.81
2023-04-16T16:53:17.757Z,90862.72
2023-04-16T16:55:44.380Z,90875.31
2023-04-16T16:58:11.292Z,90868.63
2023-04-16T17:00:38.106Z,90873.84
2023-04-16T17:03:04.956Z,90874.66
2023-04-16T17:05:31.833Z,90882.41
2023-04-16T17:07:58.625Z,90882.44
2023-04-16T17:10:25.398Z,90877.84
2023-04-16T17:12:52.037Z,90878.16
2023-04-16T17:15:21.462Z,90891.47
2023-04-16T17:17:48.705Z,90889.81
2023-04-16T17:20:15.709Z,90887.06
2023-04-16T17:22:42.567Z,90893.91
2023-04-16T17:25:09.554Z,90892.44
2023-04-16T17:27:36.273Z,90889.81
2023-04-16T17:30:03.551Z,90889.19
2023-04-16T17:32:32.397Z,90896.41
2023-04-16T17:34:59.834Z,90898.84
2023-04-16T17:37:27.074Z,90892.22
2023-04-16T17:39:53.786Z,90903.44
2023-04-16T17:42:20.566Z,90901.56
2023-04-16T17:44:47.325Z,90906.25
2023-04-16T17:47:14.074Z,90908.88
2023-04-16T17:49:40.871Z,90914.69
2023-04-16T17:52:07.546Z,90907.59
2023-04-16T17:54:36.263Z,90902.97
2023-04-16T17:57:03.027Z,90906.47
2023-04-16T17:59:29.761Z,90907.81
2023-04-16T18:01:56.848Z,90901.09
2023-04-16T18:04:23.700Z,90890.25
2023-04-16T18:06:50.534Z,90900.97
2023-04-16T18:09:17.978Z,90910.97
2023-04-16T18:11:44.721Z,90905.38
2023-04-16T18:14:13.849Z,90906.13
2023-04-16T18:16:41.891Z,90909.69
2023-04-16T18:19:08.531Z,90904.00
2023-04-16T18:21:35.718Z,90912.09
2023-04-16T18:24:03.583Z,90906.94
2023-04-16T18:26:30.458Z,90911.97
2023-04-16T18:28:57.728Z,90913.03
2023-04-16T18:31:24.553Z,90911.47
2023-04-16T18:33:56.555Z,90916.25
2023-04-16T18:36:24.492Z,90916.03
2023-04-16T18:39:00.870Z,90908.72
2023-04-16T18:41:28.123Z,90904.81
2023-04-16T18:43:54.837Z,90910.53
2023-04-16T18:46:21.681Z,90904.31
2023-04-16T18:48:48.335Z,90907.66
2023-04-16T18:51:16.321Z,90906.53
2023-04-16T18:53:44.530Z,90905.50
2023-04-16T18:56:11.718Z,90907.81
2023-04-16T18:58:38.482Z,90919.22
2023-04-16T19:01:07.818Z,90911.78
2023-04-16T19:03:34.764Z,90917.69
2023-04-16T19:06:01.634Z,90918.84
2023-04-16T19:08:28.365Z,90916.47
2023-04-16T19:10:54.994Z,90921.91
2023-04-16T19:13:21.645Z,90916.31
2023-04-16T19:15:48.362Z,90931.66
2023-04-16T19:18:15.162Z,90924.41
2023-04-16T19:20:41.764Z,90920.25
2023-04-16T19:23:09.243Z,90925.28
2023-04-16T19:25:38.903Z,90933.19
2023-04-16T19:28:05.709Z,90930.00
2023-04-16T19:30:32.382Z,90927.00
2023-04-16T19:32:59.056Z,90921.84
2023-04-16T19:35:25.832Z,90922.63
2023-04-16T19:37:52.709Z,90923.84
2023-04-16T19:40:19.387Z,90923.22
2023-04-16T19:42:45.950Z,90929.09
2023-04-16T19:45:12.683Z,90926.34
2023-04-16T19:47:39.442Z,90927.59
2023-04-16T19:50:06.654Z,90927.88
2023-04-16T19:52:38.980Z,90928.31
2023-04-16T19:55:06.746Z,90922.34
2023-04-16T19:57:33.411Z,90927.16
2023-04-16T20:02:27.011Z,90929.19
2023-04-16T20:04:53.679Z,90930.38
2023-04-16T20:07:20.577Z,90926.53
2023-04-16T20:09:47.386Z,90926.09
2023-04-16T20:12:14.443Z,90922.44
2023-04-16T20:14:42.003Z,90923.69
2023-04-16T20:17:10.143Z,90930.22
2023-04-16T20:19:40.761Z,90917.28
2023-04-16T20:22:07.424Z,90913.31
2023-04-16T20:24:34.326Z,90917.47
2023-04-16T20:27:01.803Z,90925.00
2023-04-16T20:29:28.529Z,90922.84
2023-04-16T20:31:55.348Z,90918.53
2023-04-16T20:34:22.025Z,90917.59
2023-04-16T20:36:48.668Z,90913.13
2023-04-16T20:39:20.268Z,90921.44
2023-04-16T20:41:56.555Z,90917.63
2023-04-16T20:44:26.430Z,90916.69
2023-04-16T20:46:54.746Z,90919.91
2023-04-16T20:49:21.606Z,90926.06
2023-04-16T20:51:48.378Z,90912.19
2023-04-16T20:54:14.979Z,90919.13
2023-04-16T20:56:41.640Z,90916.38
2023-04-16T20:59:08.264Z,90916.81
2023-04-16T21:01:35.524Z,90920.53
2023-04-16T21:04:02.598Z,90917.88
2023-04-16T21:06:32.915Z,90912.19
2023-04-16T21:08:59.464Z,90909.41
2023-04-16T21:11:26.259Z,90913.41
2023-04-16T21:13:52.922Z,90908.94
2023-04-16T21:16:19.669Z,90907.81
2023-04-16T21:18:46.367Z,90911.50
2023-04-16T21:21:13.063Z,90899.28
2023-04-16T21:23:39.839Z,90913.06
2023-04-16T21:26:06.534Z,90905.22
2023-04-16T21:28:33.308Z,90904.00
2023-04-16T21:30:59.999Z,90905.22
2023-04-16T21:33:26.677Z,90901.53
2023-04-16T21:35:53.583Z,90903.34
2023-04-16T21:38:20.585Z,90907.09
2023-04-16T21:40:53.790Z,90904.88
2023-04-16T21:43:20.594Z,90900.75
2023-04-16T21:45:47.273Z,90909.84
2023-04-16T21:48:13.977Z,90900.00
2023-04-16T21:50:40.614Z,90905.88
2023-04-16T21:53:07.267Z,90902.00
2023-04-16T21:55:34.832Z,90899.81
2023-04-16T21:58:02.839Z,90893.63
2023-04-16T22:00:29.791Z,90892.97
2023-04-16T22:03:00.144Z,90898.19
2023-04-16T22:05:26.979Z,90895.25
2023-04-16T22:07:53.725Z,90898.34
2023-04-16T22:10:20.407Z,90898.25
2023-04-16T22:12:47.002Z,90890.91
2023-04-16T22:15:13.876Z,90889.88
2023-04-16T22:17:40.710Z,90905.19
2023-04-16T22:20:13.128Z,90887.41
2023-04-16T22:22:42.942Z,90893.38
2023-04-16T22:25:10.102Z,90897.00
2023-04-16T22:27:36.795Z,90892.50
2023-04-16T22:30:04.168Z,90893.19
2023-04-16T22:32:31.063Z,90887.09
2023-04-16T22:34:57.775Z,90880.56
2023-04-16T22:37:24.682Z,90883.06
2023-04-16T22:39:51.684Z,90878.66
2023-04-16T22:42:18.344Z,90874.94
2023-04-16T22:44:44.933Z,90884.28
2023-04-16T22:47:11.594Z,90869.63
2023-04-16T22:49:38.225Z,90862.03
2023-04-16T22:52:05.081Z,90864.16
2023-04-16T22:54:32.139Z,90864.44
2023-04-16T22:56:58.885Z,90864.91
2023-04-16T22:59:25.892Z,90869.03
2023-04-16T23:01:52.975Z,90865.25
2023-04-16T23:04:20.070Z,90866.56
2023-04-16T23:06:46.821Z,90868.94
2023-04-16T23:09:13.846Z,90874.19
2023-04-16T23:11:40.928Z,90867.34
2023-04-16T23:14:08.343Z,90861.25
2023-04-16T23:16:35.097Z,90864.84
2023-04-16T23:19:01.691Z,90865.22
2023-04-16T23:21:28.331Z,90854.88
2023-04-16T23:23:56.605Z,90859.94
2023-04-16T23:26:23.447Z,90863.63
2023-04-16T23:28:50.081Z,90868.69
2023-04-16T23:31:16.894Z,90856.97
2023-04-16T23:33:43.544Z,90862.81
2023-04-16T23:36:10.558Z,90859.72
2023-04-16T23:38:37.194Z,90851.25
2023-04-16T23:41:03.828Z,90853.63
2023-04-16T23:43:30.489Z,90854.97
2023-04-16T23:45:57.196Z,90847.19
2023-04-16T23:48:23.855Z,90843.59
2023-04-16T23:50:50.505Z,90839.69
2023-04-16T23:53:17.335Z,90834.56
2023-04-16T23:55:44.004Z,90834.72
2023-04-16T23:58:10.806Z,90837.06
